Time;durP1;ratioP1;P1;durP2;ratioP2;P2;SDS_P1;SDS_P2;PMS_P1;PMS_P2;Temp;Humidity;BMP_temperature;BMP_pressure;BME280_temperature;BME280_humidity;BME280_pressure;Samples;Min_cycle;Max_cycle;Signal;HPM_P1;HPM_P2
2021/01/04 00:02:03;;;;;;;63.70;35.67;;;;;;;-2.06;91.67;93085.45;1830062;76;21941;-82
2021/01/04 00:04:40;;;;;;;24.95;14.98;;;;;;;-2.17;92.29;93080.83;1863890;76;21189;-79
2021/01/04 00:07:44;;;;;;;47.33;28.07;;;;;;;-2.15;92.71;93079.94;1860772;76;22670;-79
2021/01/04 00:10:54;;;;;;;36.20;21.33;;;;;;;-2.08;93.16;93100.20;1863693;76;21189;-79
2021/01/04 00:13:39;;;;;;;48.20;26.60;;;;;;;-2.04;92.98;93099.22;1863034;76;21171;-81
2021/01/04 00:16:10;;;;;;;49.23;26.90;;;;;;;-2.06;92.87;93104.66;1864413;76;21528;-80
2021/01/04 00:18:54;;;;;;;34.03;19.60;;;;;;;-2.08;92.72;93109.52;1819201;78;21159;-77
2021/01/04 00:21:40;;;;;;;80.27;41.10;;;;;;;-2.11;92.86;93105.61;1860623;76;21645;-79
2021/01/04 00:24:37;;;;;;;64.23;35.63;;;;;;;-2.03;93.71;93118.64;1865172;76;21651;-76
2021/01/04 00:27:31;;;;;;;54.10;30.97;;;;;;;-2.04;92.45;93108.55;1830133;76;21210;-78
2021/01/04 00:30:00;;;;;;;86.10;42.77;;;;;;;-2.11;92.52;93107.50;1853388;76;21148;-77
2021/01/04 00:32:33;;;;;;;69.57;39.27;;;;;;;-2.09;92.57;93104.75;1842506;75;21163;-78
2021/01/04 00:35:13;;;;;;;47.13;27.37;;;;;;;-2.10;92.33;93100.53;1834495;76;21265;-76
2021/01/04 00:38:19;;;;;;;35.30;21.40;;;;;;;-2.15;92.09;93090.59;1865373;76;21145;-77
2021/01/04 00:41:23;;;;;;;31.67;18.30;;;;;;;-2.19;92.60;93090.46;1865348;76;21573;-79
2021/01/04 00:43:55;;;;;;;21.47;13.20;;;;;;;-2.21;92.96;93086.02;1854121;76;21194;-80
2021/01/04 00:46:27;;;;;;;20.33;10.60;;;;;;;-2.22;93.19;93079.12;1819943;76;21175;-80
2021/01/04 00:49:22;;;;;;;12.23;7.13;;;;;;;-2.20;93.24;93074.26;1864889;76;21658;-78
2021/01/04 00:52:13;;;;;;;8.77;4.70;;;;;;;-2.17;93.23;93076.28;1865216;76;21180;-75
2021/01/04 00:55:13;;;;;;;10.33;6.70;;;;;;;-2.11;93.80;93075.52;1822613;76;21148;-79
2021/01/04 00:58:04;;;;;;;23.03;13.97;;;;;;;-2.07;94.27;93076.44;1855611;76;21625;-80
2021/01/04 01:00:37;;;;;;;21.47;13.53;;;;;;;-2.07;93.75;93075.10;1865130;76;21153;-81
2021/01/04 01:03:17;;;;;;;18.77;11.60;;;;;;;-2.12;93.56;93078.75;1865825;76;21325;-78
2021/01/04 01:06:21;;;;;;;18.83;11.43;;;;;;;-2.12;93.31;93084.62;1863973;76;21172;-77
2021/01/04 01:08:53;;;;;;;18.27;10.97;;;;;;;-2.20;93.00;93086.25;1816678;76;21155;-81
2021/01/04 01:11:39;;;;;;;44.83;25.10;;;;;;;-2.25;92.77;93093.10;1815740;78;21578;-78
2021/01/04 01:14:19;;;;;;;48.30;28.43;;;;;;;-2.30;92.86;93094.05;1815276;78;21594;-77
2021/01/04 01:17:16;;;;;;;57.13;29.47;;;;;;;-2.36;92.72;93094.02;1812675;79;21649;-77
2021/01/04 01:19:50;;;;;;;45.37;25.83;;;;;;;-2.37;92.82;93094.33;1835035;77;21426;-76
2021/01/04 01:22:24;;;;;;;69.43;36.37;;;;;;;-2.38;92.97;93102.09;1850546;77;21147;-76
2021/01/04 01:25:12;;;;;;;50.33;27.67;;;;;;;-2.36;92.88;93103.34;1883817;76;22614;-79
2021/01/04 01:28:19;;;;;;;49.37;26.93;;;;;;;-2.44;92.52;93097.52;1760677;77;21190;-79
2021/01/04 01:31:11;;;;;;;16.13;9.03;;;;;;;-2.50;92.72;93086.80;1859783;76;22155;-79
2021/01/04 01:34:12;;;;;;;16.43;10.03;;;;;;;-2.47;93.24;93087.50;1860090;76;21170;-78
2021/01/04 01:37:10;;;;;;;19.43;10.90;;;;;;;-2.44;93.29;93098.84;1794399;78;21042;-77
2021/01/04 01:39:44;;;;;;;20.43;13.13;;;;;;;-2.39;93.62;93102.64;1791516;80;21663;-80
2021/01/04 01:42:40;;;;;;;18.83;12.33;;;;;;;-2.32;93.47;93104.81;1770465;79;21166;-76
2021/01/04 01:45:16;;;;;;;20.80;11.83;;;;;;;-2.32;93.37;93102.92;1782789;79;21586;-77
2021/01/04 01:48:24;;;;;;;15.83;8.87;;;;;;;-2.33;93.36;93097.38;1777588;80;21195;-77
2021/01/04 01:50:59;;;;;;;24.97;16.47;;;;;;;-2.34;93.65;93094.46;1798292;79;21196;-79
2021/01/04 01:53:50;;;;;;;12.78;8.70;;;;;;;-2.41;92.83;93088.86;1813731;79;21219;-79
2021/01/04 01:56:40;;;;;;;47.93;26.80;;;;;;;-2.52;92.84;93080.48;1749527;79;21624;-77
2021/01/04 01:59:55;;;;;;;80.57;41.23;;;;;;;-2.53;93.25;93078.13;1762488;80;21400;-81
2021/01/04 02:02:43;;;;;;;66.63;36.47;;;;;;;-2.52;93.33;93067.17;1811906;79;21199;-78
2021/01/04 02:05:52;;;;;;;44.47;23.37;;;;;;;-2.48;93.33;93052.66;1811871;79;21183;-80
2021/01/04 02:08:23;;;;;;;25.50;13.73;;;;;;;-2.49;93.11;93040.44;1812450;79;21179;-78
2021/01/04 02:10:58;;;;;;;11.37;6.83;;;;;;;-2.53;93.30;93026.20;1812455;78;21183;-78
2021/01/04 02:13:44;;;;;;;18.02;9.23;;;;;;;-2.51;93.59;93018.14;1824016;78;21707;-80
2021/01/04 02:16:20;;;;;;;17.77;11.00;;;;;;;-2.47;93.75;93007.62;1812011;79;21433;-78
2021/01/04 02:19:01;;;;;;;9.80;5.30;;;;;;;-2.50;93.28;93003.72;1811651;79;21185;-77
2021/01/04 02:21:53;;;;;;;4.60;4.10;;;;;;;-2.51;93.22;93006.71;1812072;79;21177;-78
2021/01/04 02:24:24;;;;;;;8.23;3.87;;;;;;;-2.54;93.46;93029.98;1812522;79;21149;-77
2021/01/04 02:27:24;;;;;;;4.70;3.70;;;;;;;-2.55;93.75;93031.09;1781256;79;21709;-79
2021/01/04 02:29:52;;;;;;;31.10;19.10;;;;;;;-2.54;94.04;93031.31;1735008;79;21218;-80
2021/01/04 02:32:22;;;;;;;47.40;27.93;;;;;;;-2.54;94.14;93038.74;1780225;80;21268;-81
2021/01/04 02:34:52;;;;;;;52.93;28.97;;;;;;;-2.50;94.39;93043.66;1778084;79;21190;-82
2021/01/04 02:37:23;;;;;;;42.90;24.00;;;;;;;-2.49;94.01;93055.85;1803811;79;21446;-80
2021/01/04 02:40:06;;;;;;;57.77;33.60;;;;;;;-2.51;93.75;93062.63;1802377;79;21239;-77
2021/01/04 02:42:39;;;;;;;61.83;36.77;;;;;;;-2.52;93.49;93071.69;1782679;79;21210;-78
2021/01/04 02:45:21;;;;;;;65.30;37.07;;;;;;;-2.55;93.50;93068.36;1729852;82;21191;-80
2021/01/04 02:47:56;;;;;;;66.43;39.10;;;;;;;-2.59;93.33;93066.89;1747235;81;21622;-78
2021/01/04 02:50:38;;;;;;;67.60;38.53;;;;;;;-2.59;93.29;93059.46;1777394;80;21170;-77
2021/01/04 02:53:26;;;;;;;58.07;31.80;;;;;;;-2.57;93.22;93063.89;1786002;80;21300;-79
2021/01/04 02:56:43;;;;;;;52.50;29.07;;;;;;;-2.60;92.83;93061.31;1791231;80;21763;-77
2021/01/04 02:59:45;;;;;;;52.57;28.60;;;;;;;-2.71;92.24;93059.59;1733651;78;21442;-79
2021/01/04 03:02:21;;;;;;;43.47;27.07;;;;;;;-2.79;92.60;93052.95;1824686;77;21572;-81
2021/01/04 03:04:49;;;;;;;31.83;19.90;;;;;;;-2.77;93.15;93058.20;1852962;77;21135;-77
2021/01/04 03:07:24;;;;;;;35.10;20.73;;;;;;;-2.69;93.61;93052.05;1857161;77;21352;-76
2021/01/04 03:09:53;;;;;;;;;;;;;;;-2.59;93.86;93062.12;1859579;77;21191;-79
2021/01/04 03:12:25;;;;;;;37.20;22.90;;;;;;;-2.52;94.01;93059.70;1856613;77;20265;-80
2021/01/04 03:15:07;;;;;;;48.23;29.37;;;;;;;-2.50;93.89;93063.62;1858924;76;21159;-79
2021/01/04 03:17:57;;;;;;;56.20;33.63;;;;;;;-2.47;93.62;93074.97;1823351;78;21167;-83
2021/01/04 03:20:25;;;;;;;63.87;35.63;;;;;;;-2.48;93.19;93064.64;1837618;75;21493;-81
2021/01/04 03:22:52;;;;;;;61.50;33.70;;;;;;;-2.56;92.67;93060.91;1848777;76;21566;-78
2021/01/04 03:25:32;;;;;;;46.40;30.10;;;;;;;-2.64;92.53;93051.08;1850592;76;21181;-80
2021/01/04 03:28:02;;;;;;;51.40;29.73;;;;;;;-2.70;92.42;93049.72;1848465;77;21145;-78
2021/01/04 03:30:40;;;;;;;51.17;29.23;;;;;;;-2.75;92.37;93045.89;1842609;77;21116;-81
2021/01/04 03:33:05;;;;;;;50.77;28.77;;;;;;;-2.77;92.45;93042.79;1816255;78;21617;-79
2021/01/04 03:35:33;;;;;;;45.03;24.30;;;;;;;-2.78;92.41;93042.56;1839054;77;21308;-79
2021/01/04 03:38:01;;;;;;;33.80;20.60;;;;;;;-2.80;92.39;93048.75;1842176;77;21191;-79
2021/01/04 03:40:29;;;;;;;41.33;24.70;;;;;;;-2.80;92.51;93049.52;1842284;77;21158;-80
2021/01/04 03:43:01;;;;;;;46.07;29.07;;;;;;;-2.79;92.57;93042.31;1841886;77;21183;-78
2021/01/04 03:45:43;;;;;;;57.50;34.43;;;;;;;-2.79;92.63;93046.30;1798322;78;22722;-81
2021/01/04 03:48:11;;;;;;;27.07;16.83;;;;;;;-2.77;92.49;93041.45;1837361;77;21496;-80
2021/01/04 03:50:39;;;;;;;37.40;21.83;;;;;;;-2.75;92.57;93044.01;1855532;75;21381;-79
2021/01/04 03:53:07;;;;;;;34.57;21.70;;;;;;;-2.70;92.61;93053.72;1887900;76;21158;-78
2021/01/04 03:55:38;;;;;;;41.67;26.37;;;;;;;-2.67;92.52;93054.94;1856212;75;21203;-78
2021/01/04 03:58:06;;;;;;;51.10;32.00;;;;;;;-2.66;92.47;93057.84;1879695;74;21452;-80
2021/01/04 04:00:33;;;;;;;49.77;31.80;;;;;;;-2.64;92.24;93051.64;1888641;74;21600;-79
2021/01/04 04:03:01;;;;;;;48.43;29.80;;;;;;;-2.64;92.16;93061.73;1852220;76;21397;-76
2021/01/04 04:05:30;;;;;;;49.30;29.63;;;;;;;-2.59;92.08;93066.11;1886026;75;21162;-76
2021/01/04 04:08:00;;;;;;;39.23;24.23;;;;;;;-2.58;92.04;93061.79;1894772;75;21119;-79
2021/01/04 04:10:28;;;;;;;60.70;37.97;;;;;;;-2.55;91.87;93059.05;1891683;74;21473;-79
2021/01/04 04:12:55;;;;;;;37.13;23.47;;;;;;;-2.58;91.71;93063.12;1863646;75;21585;-79
2021/01/04 04:15:23;;;;;;;31.07;19.53;;;;;;;-2.57;91.68;93064.67;1888619;75;21640;-78
2021/01/04 04:17:51;;;;;;;46.37;26.90;;;;;;;-2.59;91.13;93065.56;1880531;75;21577;-80
2021/01/04 04:20:22;;;;;;;68.97;36.53;;;;;;;-2.66;91.02;93061.84;1810305;79;22247;-80
2021/01/04 04:22:50;;;;;;;53.00;32.87;;;;;;;-2.71;91.08;93082.22;1821229;76;21409;-80
2021/01/04 04:25:19;;;;;;;50.30;29.90;;;;;;;-2.71;91.21;93080.08;1850007;77;21220;-76
2021/01/04 04:27:48;;;;;;;50.03;29.47;;;;;;;-2.70;91.22;93070.46;1881017;75;21170;-79
2021/01/04 04:30:25;;;;;;;50.57;29.77;;;;;;;-2.70;91.18;93079.00;1857423;76;21167;-80
2021/01/04 04:32:57;;;;;;;42.03;25.97;;;;;;;-2.74;90.95;93079.41;1869164;76;21248;-77
2021/01/04 04:35:26;;;;;;;39.47;25.30;;;;;;;-2.79;91.01;93076.91;1856288;75;21629;-80
2021/01/04 04:37:53;;;;;;;42.57;24.70;;;;;;;-2.79;91.27;93074.25;1871426;75;21199;-78
2021/01/04 04:40:28;;;;;;;37.67;21.90;;;;;;;-2.79;91.24;93072.36;1860072;76;21193;-79
2021/01/04 04:43:26;;;;;;;32.37;21.50;;;;;;;-2.77;91.32;93067.52;1866444;76;21507;-77
2021/01/04 04:45:53;;;;;;;29.50;17.60;;;;;;;-2.75;91.27;93064.52;1797183;79;21184;-82
2021/01/04 04:48:37;;;;;;;22.37;13.07;;;;;;;-2.72;91.39;93065.22;1791927;80;21620;-77
2021/01/04 04:51:29;;;;;;;22.90;14.53;;;;;;;-2.66;91.52;93070.60;1756540;80;21198;-78
2021/01/04 04:54:26;;;;;;;15.87;9.83;;;;;;;-2.65;91.63;93062.06;1781781;79;21230;-76
2021/01/04 04:57:35;;;;;;;33.77;19.07;;;;;;;-2.65;91.81;93066.83;1754624;78;21206;-76
2021/01/04 05:00:26;;;;;;;36.40;21.13;;;;;;;-2.59;92.10;93074.10;1782953;80;21886;-75
2021/01/04 05:03:23;;;;;;;43.57;26.47;;;;;;;-2.57;91.98;93078.54;1778329;80;21202;-79
2021/01/04 05:06:23;;;;;;;36.43;22.57;;;;;;;-2.53;91.67;93074.91;1820334;76;21155;-80
2021/01/04 05:09:11;;;;;;;46.97;27.70;;;;;;;-2.54;91.30;93068.03;1810117;78;21102;-78
2021/01/04 05:11:40;;;;;;;49.37;27.37;;;;;;;-2.59;90.91;93066.11;1817140;79;21167;-78
2021/01/04 05:14:22;;;;;;;46.43;26.40;;;;;;;-2.66;91.00;93056.52;1833768;77;21347;-78
2021/01/04 05:17:01;;;;;;;58.70;32.60;;;;;;;-2.71;90.96;93055.60;1833290;78;21401;-78
2021/01/04 05:20:04;;;;;;;55.53;27.80;;;;;;;-2.74;91.11;93050.91;1870743;75;21176;-78
2021/01/04 05:23:12;;;;;;;47.50;28.97;;;;;;;-2.73;91.06;93051.14;1904425;75;21197;-78
2021/01/04 05:25:57;;;;;;;43.90;26.63;;;;;;;-2.72;91.01;93056.68;1878599;74;21153;-78
2021/01/04 05:28:46;;;;;;;46.10;25.37;;;;;;;-2.74;90.94;93062.89;1867187;76;21185;-78
2021/01/04 05:31:37;;;;;;;49.30;28.50;;;;;;;-2.71;91.35;93068.10;1869599;76;21176;-78
2021/01/04 05:34:28;;;;;;;28.00;16.47;;;;;;;-2.71;90.96;93059.59;1832455;77;21172;-78
2021/01/04 05:37:09;;;;;;;23.57;14.23;;;;;;;-2.71;91.14;93062.25;1798755;79;21164;-78
2021/01/04 05:39:48;;;;;;;19.20;10.87;;;;;;;-2.70;91.80;93059.81;1800111;79;21165;-78
2021/01/04 05:42:33;;;;;;;24.43;15.30;;;;;;;-2.68;92.22;93067.47;1784423;78;21299;-78
2021/01/04 05:45:38;;;;;;;17.92;10.90;;;;;;;-2.64;92.03;93060.40;1863874;76;21424;-78
2021/01/04 05:48:16;;;;;;;45.10;24.90;;;;;;;-2.62;91.79;93066.75;1874272;76;21169;-79
2021/01/04 05:50:59;;;;;;;61.00;31.67;;;;;;;-2.59;91.91;93077.54;1877186;76;22101;-79
2021/01/04 05:53:26;;;;;;;37.77;19.40;;;;;;;-2.59;91.63;93069.55;1911947;75;21157;-79
2021/01/04 05:55:58;;;;;;;41.30;24.43;;;;;;;-2.58;91.48;93079.65;1881979;75;21137;-79
2021/01/04 05:58:32;;;;;;;37.07;22.30;;;;;;;-2.55;91.59;93076.35;1835142;78;21344;-79
2021/01/04 06:01:11;;;;;;;19.80;11.63;;;;;;;-2.51;91.58;93074.60;1826732;78;21178;-79
2021/01/04 06:03:39;;;;;;;8.53;6.00;;;;;;;-2.45;91.73;93078.06;1835342;77;21174;-79
2021/01/04 06:06:33;;;;;;;6.33;4.67;;;;;;;-2.42;91.79;93086.53;1826684;78;21515;-79
2021/01/04 06:09:05;;;;;;;5.70;3.83;;;;;;;-2.37;92.17;93097.80;1724054;82;21467;-79
2021/01/04 06:11:33;;;;;;;4.43;3.63;;;;;;;-2.33;92.19;93085.92;1877120;76;21192;-79
2021/01/04 06:14:05;;;;;;;29.27;15.67;;;;;;;-2.30;92.39;93095.94;1840800;76;21151;-79
2021/01/04 06:16:33;;;;;;;11.03;7.00;;;;;;;-2.24;92.52;93094.66;1840163;76;21151;-79
2021/01/04 06:19:12;;;;;;;12.07;8.17;;;;;;;-2.17;92.66;93101.59;1894584;75;21142;-79
2021/01/04 06:21:52;;;;;;;18.90;10.87;;;;;;;-2.09;92.64;93107.97;1870556;76;21212;-78
2021/01/04 06:24:30;;;;;;;25.67;15.53;;;;;;;-2.04;92.33;93109.09;1874431;76;21234;-79
2021/01/04 06:27:13;;;;;;;21.00;12.60;;;;;;;-2.00;92.06;93114.01;1870661;76;21109;-79
2021/01/04 06:29:49;;;;;;;5.53;4.80;;;;;;;-1.99;91.79;93111.03;1804655;79;21137;-79
2021/01/04 06:32:27;;;;;;;5.63;4.43;;;;;;;-2.06;91.45;93110.77;1820591;78;21725;-78
2021/01/04 06:34:59;;;;;;;18.07;8.13;;;;;;;-2.10;91.90;93115.18;1822832;78;21186;-78
2021/01/04 06:37:28;;;;;;;10.63;5.10;;;;;;;-2.10;92.00;93114.41;1840264;75;22649;-78
2021/01/04 06:40:03;;;;;;;8.03;3.97;;;;;;;-2.13;91.46;93107.05;1885057;75;21169;-78
2021/01/04 06:42:40;;;;;;;9.90;6.33;;;;;;;-2.18;91.50;93112.55;1861725;76;21180;-78
2021/01/04 06:45:19;;;;;;;11.27;5.90;;;;;;;-2.16;92.13;93113.02;1853190;77;21644;-78
2021/01/04 06:48:04;;;;;;;5.50;3.47;;;;;;;-2.17;91.71;93108.25;1884075;75;21148;-78
2021/01/04 06:50:43;;;;;;;3.77;3.35;;;;;;;-2.23;91.52;93110.30;1860913;75;21272;-78
2021/01/04 06:53:36;;;;;;;4.80;3.90;;;;;;;-2.24;92.27;93115.41;1870703;76;21212;-78
2021/01/04 06:56:36;;;;;;;13.83;7.07;;;;;;;-2.20;92.43;93108.89;1870837;76;21711;-79
2021/01/04 06:59:31;;;;;;;6.43;3.67;;;;;;;-2.15;92.53;93115.35;1869401;76;21177;-78
2021/01/04 07:02:28;;;;;;;4.53;3.13;;;;;;;-2.10;92.51;93099.75;1868780;76;21477;-79
2021/01/04 07:05:19;;;;;;;6.47;5.07;;;;;;;-2.11;92.88;93100.28;1869491;75;21926;-78
2021/01/04 07:08:31;;;;;;;5.03;4.07;;;;;;;-2.01;93.37;93097.24;1868968;76;21679;-79
2021/01/04 07:11:25;;;;;;;8.10;4.17;;;;;;;-1.89;93.32;93087.77;1869049;76;21625;-79
2021/01/04 07:14:52;;;;;;;7.20;5.50;;;;;;;-1.79;93.37;93078.05;1881365;74;21643;-79
2021/01/04 07:17:51;;;;;;;161.30;90.13;;;;;;;-1.67;93.41;93083.98;1897056;75;21156;-79
2021/01/04 07:20:50;;;;;;;128.47;75.00;;;;;;;-1.57;92.80;93083.60;1867945;75;21213;-78
2021/01/04 07:23:48;;;;;;;75.87;43.57;;;;;;;-1.54;92.41;93079.73;1869077;76;21697;-78
2021/01/04 07:27:11;;;;;;;78.22;46.88;;;;;;;-1.51;92.07;93080.94;1868573;76;21142;-77
2021/01/04 07:30:04;;;;;;;81.70;46.07;;;;;;;-1.51;91.75;93083.05;1871906;76;21474;-77
2021/01/04 07:33:11;;;;;;;74.55;46.50;;;;;;;-1.49;91.52;93077.41;1869287;75;21191;-78
2021/01/04 07:36:05;;;;;;;98.93;55.23;;;;;;;-1.50;91.26;93080.63;1870362;76;21410;-78
2021/01/04 07:39:04;;;;;;;92.87;55.43;;;;;;;-1.47;91.34;93081.84;1869195;76;21421;-78
2021/01/04 07:41:43;;;;;;;84.55;51.25;;;;;;;-1.42;91.08;93076.88;1870332;76;21200;-77
2021/01/04 07:45:03;;;;;;;78.10;46.67;;;;;;;-1.38;91.01;93067.89;1869017;76;21623;-78
2021/01/04 07:48:00;;;;;;;79.97;47.97;;;;;;;-1.34;90.88;93065.34;1868661;76;21480;-80
2021/01/04 07:51:07;;;;;;;87.67;48.40;;;;;;;-1.31;90.68;93069.47;1850111;76;22615;-78
2021/01/04 07:54:01;;;;;;;71.87;41.53;;;;;;;-1.24;90.65;93078.28;1869396;76;21221;-78
2021/01/04 07:57:13;;;;;;;63.28;38.33;;;;;;;-1.19;90.57;93071.95;1868451;75;21158;-80
2021/01/04 08:00:12;;;;;;;69.67;41.65;;;;;;;-1.16;90.56;93081.41;1852176;75;21186;-79
2021/01/04 08:03:13;;;;;;;53.02;30.75;;;;;;;-1.17;90.44;93081.72;1868454;76;21182;-79
2021/01/04 08:06:04;;;;;;;83.05;44.15;;;;;;;-1.16;90.65;93077.41;1842475;76;21183;-78
2021/01/04 08:08:43;;;;;;;50.55;29.90;;;;;;;-1.11;90.80;93083.08;1884502;75;21122;-79
2021/01/04 08:11:36;;;;;;;53.25;31.70;;;;;;;-1.05;91.02;93083.11;1866622;75;21354;-79
2021/01/04 08:14:48;;;;;;;89.13;48.83;;;;;;;-0.97;91.03;93084.91;1822837;78;21105;-79
2021/01/04 08:17:32;;;;;;;130.37;72.77;;;;;;;-0.93;90.79;93080.45;1835822;78;21042;-78
2021/01/04 08:20:02;;;;;;;99.07;55.28;;;;;;;-0.93;90.62;93077.79;1835173;78;21371;-79
2021/01/04 08:22:54;;;;;;;63.90;38.40;;;;;;;-0.89;90.56;93085.92;1835158;78;21480;-79
2021/01/04 08:25:41;;;;;;;65.13;40.07;;;;;;;-0.87;90.45;93079.67;1835553;78;21074;-79
2021/01/04 08:28:22;;;;;;;89.60;51.33;;;;;;;-0.85;90.43;93076.91;1834635;77;21367;-79
2021/01/04 08:30:58;;;;;;;125.12;67.10;;;;;;;-0.80;90.39;93071.34;1835962;78;21122;-80
2021/01/04 08:33:40;;;;;;;70.52;43.05;;;;;;;-0.74;90.24;93070.03;1855524;77;21355;-79
2021/01/04 08:36:30;;;;;;;80.97;44.25;;;;;;;-0.74;90.21;93074.59;1849212;77;21177;-79
2021/01/04 08:39:24;;;;;;;73.75;45.63;;;;;;;-0.68;90.50;93073.80;1863756;76;21680;-79
2021/01/04 08:42:27;;;;;;;110.17;59.80;;;;;;;-0.65;90.31;93070.48;1869356;76;21137;-79
2021/01/04 08:45:10;;;;;;;255.15;116.47;;;;;;;-0.64;90.17;93071.50;1826726;77;21189;-79
2021/01/04 08:47:51;;;;;;;362.20;158.80;;;;;;;-0.62;90.22;93065.81;1811733;79;21443;-79
2021/01/04 08:50:36;;;;;;;232.22;111.50;;;;;;;-0.59;90.26;93068.59;1870709;76;21109;-79
2021/01/04 08:53:19;;;;;;;;;;;;;;;-0.56;90.29;93074.61;1842240;76;21106;-80
2021/01/04 08:55:48;;;;;;;209.80;103.55;;;;;;;-0.54;90.26;93075.60;1873861;76;20255;-79
2021/01/04 08:58:29;;;;;;;130.15;61.50;;;;;;;-0.53;90.26;93076.62;1840570;75;21067;-79
2021/01/04 09:01:09;;;;;;;92.90;47.35;;;;;;;-0.54;90.46;93072.93;1874007;76;21241;-79
2021/01/04 09:03:37;;;;;;;79.35;46.35;;;;;;;-0.53;90.87;93073.95;1899113;74;21921;-80
2021/01/04 09:06:30;;;;;;;65.70;37.63;;;;;;;-0.50;90.91;93072.48;1874271;75;21554;-81
2021/01/04 09:09:19;;;;;;;55.30;30.88;;;;;;;-0.45;90.99;93074.95;1878164;75;21113;-80
2021/01/04 09:12:05;;;;;;;51.20;28.55;;;;;;;-0.38;91.10;93075.70;1831336;76;21073;-78
2021/01/04 09:14:52;;;;;;;49.03;28.10;;;;;;;-0.28;91.23;93072.59;1875332;76;21370;-80
2021/01/04 09:17:28;;;;;;;31.82;14.83;;;;;;;-0.18;91.21;93076.72;1875473;76;21136;-79
2021/01/04 09:20:09;;;;;;;38.48;21.37;;;;;;;-0.13;91.17;93073.25;1879493;75;21109;-79
2021/01/04 09:22:37;;;;;;;50.83;29.87;;;;;;;-0.08;91.19;93065.55;1889912;75;21277;-80
2021/01/04 09:25:08;;;;;;;55.08;34.83;;;;;;;-0.04;90.92;93064.56;1911043;75;21074;-81
2021/01/04 09:27:37;;;;;;;55.92;33.78;;;;;;;-0.03;90.85;93059.43;1872185;74;22105;-81
2021/01/04 09:30:08;;;;;;;56.10;33.45;;;;;;;0.05;90.82;93059.64;1872199;76;21170;-81
2021/01/04 09:32:39;;;;;;;57.30;35.68;;;;;;;0.09;90.57;93045.81;1874738;76;21193;-81
2021/01/04 09:35:15;;;;;;;65.28;40.48;;;;;;;0.14;90.63;93041.56;1851916;76;21228;-79
2021/01/04 09:37:45;;;;;;;87.22;54.60;;;;;;;0.20;90.64;93040.22;1829260;78;21182;-79
2021/01/04 09:40:18;;;;;;;71.35;45.20;;;;;;;0.27;90.39;93039.65;1825980;78;21695;-79
2021/01/04 09:42:47;;;;;;;62.30;40.95;;;;;;;0.30;90.32;93033.59;1827658;78;21109;-79
2021/01/04 09:45:20;;;;;;;71.97;45.67;;;;;;;0.32;90.22;93023.35;1828117;78;21604;-79
2021/01/04 09:47:50;;;;;;;79.95;50.95;;;;;;;0.33;90.12;93025.67;1829994;78;21082;-79
2021/01/04 09:50:24;;;;;;;87.42;53.78;;;;;;;0.37;90.15;93017.75;1829525;78;21531;-79
2021/01/04 09:55:42;;;;;;;93.10;58.90;;;;;;;0.49;90.05;93008.36;1878844;76;21968;-82
2021/01/04 09:58:10;;;;;;;71.20;45.73;;;;;;;0.47;90.13;93014.59;1764036;77;21207;-78
2021/01/04 10:00:39;;;;;;;108.37;69.72;;;;;;;0.54;90.41;93011.34;1767626;80;21696;-79
2021/01/04 10:03:16;;;;;;;93.60;58.75;;;;;;;0.62;90.53;93004.48;1762415;79;21206;-77
2021/01/04 10:05:45;;;;;;;59.35;39.40;;;;;;;0.69;90.52;93000.66;1761257;79;21188;-78
2021/01/04 10:08:24;;;;;;;57.67;37.08;;;;;;;0.78;90.41;92987.67;1737893;80;21207;-81
2021/01/04 10:11:00;;;;;;;54.50;37.17;;;;;;;0.85;90.44;92977.16;1813006;79;21187;-79
2021/01/04 10:13:30;;;;;;;67.85;45.05;;;;;;;0.93;90.55;92976.20;1801680;79;21807;-79
2021/01/04 10:15:58;;;;;;;54.98;34.80;;;;;;;1.02;90.64;92974.15;1749363;81;21171;-79
2021/01/04 10:18:53;;;;;;;46.85;30.10;;;;;;;1.08;90.80;92967.39;1786819;80;21694;-79
2021/01/04 10:21:26;;;;;;;43.30;28.07;;;;;;;1.15;90.90;92955.52;1766420;79;21208;-78
2021/01/04 10:24:03;;;;;;;43.10;28.57;;;;;;;1.24;90.80;92944.61;1830841;77;21589;-81
2021/01/04 10:26:42;;;;;;;49.38;30.00;;;;;;;1.33;90.63;92951.14;1773768;79;22286;-81
2021/01/04 10:29:16;;;;;;;77.10;44.58;;;;;;;1.40;90.42;92949.97;1782444;80;21660;-82
2021/01/04 10:31:44;;;;;;;82.78;51.83;;;;;;;1.45;89.52;92956.39;1797538;79;21153;-83
2021/01/04 10:34:16;;;;;;;72.30;44.13;;;;;;;1.48;89.21;92958.37;1784048;78;21298;-81
2021/01/04 10:37:03;;;;;;;76.10;48.70;;;;;;;1.54;89.05;92949.49;1808165;77;21016;-80
2021/01/04 10:39:35;;;;;;;133.35;72.97;;;;;;;1.61;88.94;92948.31;1802091;78;22516;-84
2021/01/04 10:42:09;;;;;;;126.95;63.98;;;;;;;1.68;88.88;92939.86;1802811;78;21677;-85
2021/01/04 10:44:37;;;;;;;75.62;43.15;;;;;;;1.71;89.15;92950.45;1808408;79;21171;-83
2021/01/04 10:47:12;;;;;;;55.75;34.18;;;;;;;1.72;89.02;92944.52;1808006;79;21199;-79
2021/01/04 10:49:39;;;;;;;55.98;33.20;;;;;;;1.74;89.04;92940.94;1853055;76;21228;-80
2021/01/04 10:52:20;;;;;;;45.85;25.88;;;;;;;1.78;88.82;92931.84;1796822;77;21797;-78
2021/01/04 10:54:49;;;;;;;48.20;29.80;;;;;;;1.84;88.66;92922.41;1798731;79;21212;-80
2021/01/04 10:57:31;;;;;;;40.20;25.90;;;;;;;1.91;88.42;92925.77;1786509;78;21607;-79
2021/01/04 11:00:19;;;;;;;50.15;33.50;;;;;;;1.95;88.47;92922.59;1810709;77;21137;-79
2021/01/04 11:02:49;;;;;;;51.08;30.85;;;;;;;2.01;88.19;92919.08;1812114;77;21188;-84
2021/01/04 11:05:22;;;;;;;53.78;34.00;;;;;;;2.06;87.48;92913.42;1814189;77;21172;-82
2021/01/04 11:07:49;;;;;;;104.07;54.18;;;;;;;2.09;87.63;92903.34;1742049;78;21168;-79
2021/01/04 11:10:28;;;;;;;78.55;42.20;;;;;;;2.18;88.10;92904.69;1780774;79;21194;-82
2021/01/04 11:12:58;;;;;;;96.85;49.00;;;;;;;2.30;88.17;92888.99;1786224;79;21627;-80
2021/01/04 11:15:35;;;;;;;106.15;50.90;;;;;;;2.43;87.64;92893.62;1781095;79;21108;-80
2021/01/04 11:18:12;;;;;;;85.77;46.23;;;;;;;2.52;86.74;92885.33;1816162;78;21361;-80
2021/01/04 11:20:41;;;;;;;95.62;49.13;;;;;;;2.56;86.55;92870.09;1817035;78;21444;-78
2021/01/04 11:23:14;;;;;;;222.00;118.42;;;;;;;2.66;86.33;92880.21;1755907;81;21236;-80
2021/01/04 11:25:44;;;;;;;195.45;101.92;;;;;;;2.71;86.65;92863.83;1806518;78;21188;-78
2021/01/04 11:28:13;;;;;;;95.83;51.77;;;;;;;2.74;86.61;92860.97;1765202;79;21600;-78
2021/01/04 11:30:42;;;;;;;85.60;47.75;;;;;;;2.76;86.75;92862.17;1755827;80;21369;-81
2021/01/04 11:33:15;;;;;;;89.50;50.88;;;;;;;2.82;86.74;92855.38;1721288;80;21216;-80
2021/01/04 11:35:39;;;;;;;60.65;35.80;;;;;;;2.88;86.77;92855.83;1754328;81;21178;-80
2021/01/04 11:38:10;;;;;;;61.23;37.08;;;;;;;2.89;86.86;92852.00;1756758;81;21756;-80
2021/01/04 11:40:38;;;;;;;49.40;30.08;;;;;;;2.94;86.96;92846.34;1807392;79;21151;-80
2021/01/04 11:43:06;;;;;;;79.82;42.00;;;;;;;2.99;86.86;92843.91;1752643;79;21506;-80
2021/01/04 11:45:33;;;;;;;65.42;37.90;;;;;;;3.00;86.76;92844.88;1803077;77;21155;-79
2021/01/04 11:48:01;;;;;;;63.15;38.08;;;;;;;3.00;86.84;92848.91;1781109;79;21182;-81
2021/01/04 11:50:29;;;;;;;51.68;29.32;;;;;;;3.03;86.21;92847.42;1775244;80;21693;-79
2021/01/04 11:52:56;;;;;;;65.87;38.92;;;;;;;3.02;85.97;92843.97;1796487;79;21207;-79
2021/01/04 11:55:25;;;;;;;66.72;39.05;;;;;;;3.04;85.71;92837.66;1825823;77;21783;-79
2021/01/04 11:57:53;;;;;;;405.57;209.03;;;;;;;3.09;85.84;92841.97;1781453;78;21198;-80
2021/01/04 12:00:21;;;;;;;112.40;59.48;;;;;;;3.11;86.29;92836.41;1809063;78;21190;-78
2021/01/04 12:02:49;;;;;;;72.67;38.20;;;;;;;3.11;86.32;92836.98;1801570;79;21199;-81
2021/01/04 12:05:16;;;;;;;53.65;31.70;;;;;;;3.09;85.79;92833.33;1719353;82;21303;-81
2021/01/04 12:07:44;;;;;;;39.85;25.80;;;;;;;3.09;85.30;92831.22;1786199;79;21374;-80
2021/01/04 12:10:13;;;;;;;75.15;41.92;;;;;;;3.07;85.14;92829.45;1779740;79;21536;-79
2021/01/04 12:12:40;;;;;;;69.25;41.35;;;;;;;3.05;85.30;92829.82;1756847;80;21172;-80
2021/01/04 12:15:09;;;;;;;94.52;52.15;;;;;;;3.06;85.59;92821.96;1824377;77;21440;-79
2021/01/04 12:17:37;;;;;;;141.28;76.02;;;;;;;3.11;85.42;92823.55;1810382;78;21174;-82
2021/01/04 12:20:06;;;;;;;69.75;36.85;;;;;;;3.14;85.67;92828.21;1817061;77;21354;-80
2021/01/04 12:22:34;;;;;;;56.42;33.33;;;;;;;3.16;85.94;92825.95;1803814;77;21191;-79
2021/01/04 12:25:03;;;;;;;63.48;36.68;;;;;;;3.19;85.71;92823.86;1811035;77;21258;-79
2021/01/04 12:27:31;;;;;;;55.23;31.50;;;;;;;3.20;85.58;92825.97;1781600;80;21183;-78